Walker, California
Current Conditions -  °F | °C
As of 8:52 PM on Saturday 20 Dec 2014 (Local Time) from KBAN Reporting Station
Overcast Overcast  
Wind Chill: 45°   Ceiling: 5000
Heat Index: 45°   Visibility: NA
Dew Point: 32°   Wind: 3mph
Humidity: 60%   Direction: NA
Pressure: 30.21"   Gusts: NA
Location:  38.4678°N, 119.486°W
Report Text: KBAN 210452Z AUTO VRB03KT OVC050 07/00 A3021 RMK AO2 SLP203 T00720000 $
Loading
Personal Weather Stations






























Interactive Weather Map New forecast layout! Learn more

10-Day Weather Forecast

Advertisements
Track Severe Weather on mobile